createdAt,value
2018-05-04T00:01:25.314Z,14.50
2018-05-04T00:03:52.820Z,14.40
2018-05-04T00:06:20.288Z,14.40
2018-05-04T00:08:47.740Z,14.40
2018-05-04T00:11:15.255Z,14.30
2018-05-04T00:13:43.099Z,14.20
2018-05-04T00:16:10.559Z,14.20
2018-05-04T00:18:38.024Z,14.20
2018-05-04T00:21:05.470Z,14.10
2018-05-04T00:23:32.990Z,14.10
2018-05-04T00:26:00.441Z,14.00
2018-05-04T00:28:27.915Z,14.00
2018-05-04T00:30:55.396Z,14.00
2018-05-04T00:33:22.846Z,13.90
2018-05-04T00:35:50.409Z,13.90
2018-05-04T00:38:17.908Z,13.80
2018-05-04T00:40:45.365Z,13.80
2018-05-04T00:43:12.832Z,13.70
2018-05-04T00:45:40.965Z,13.60
2018-05-04T00:48:08.468Z,13.60
2018-05-04T00:50:35.929Z,13.50
2018-05-04T00:53:03.383Z,13.50
2018-05-04T00:55:30.879Z,13.40
2018-05-04T00:57:58.322Z,13.40
2018-05-04T01:00:25.845Z,13.30
2018-05-04T01:02:53.363Z,13.30
2018-05-04T01:05:20.814Z,13.20
2018-05-04T01:07:48.272Z,13.20
2018-05-04T01:10:15.740Z,13.10
2018-05-04T01:12:43.257Z,13.00
2018-05-04T01:15:10.714Z,13.00
2018-05-04T01:17:38.180Z,12.90
2018-05-04T01:20:06.571Z,12.90
2018-05-04T01:22:34.070Z,12.80
2018-05-04T01:25:01.636Z,12.80
2018-05-04T01:27:29.112Z,12.70
2018-05-04T01:29:56.572Z,12.70
2018-05-04T01:32:24.121Z,12.60
2018-05-04T01:34:51.573Z,12.60
2018-05-04T01:37:19.559Z,12.50
2018-05-04T01:39:47.116Z,12.50
2018-05-04T01:42:14.592Z,12.40
2018-05-04T01:44:42.074Z,12.40
2018-05-04T01:47:09.948Z,12.40
2018-05-04T01:49:37.861Z,12.30
2018-05-04T01:52:05.354Z,12.40
2018-05-04T01:54:32.828Z,12.30
2018-05-04T01:57:00.284Z,12.30
2018-05-04T01:59:27.842Z,12.20
2018-05-04T02:01:55.361Z,12.20
2018-05-04T02:04:22.812Z,12.10
2018-05-04T02:06:50.330Z,12.10
2018-05-04T02:09:17.789Z,12.10
2018-05-04T02:11:45.240Z,12.00
2018-05-04T02:14:12.737Z,12.00
2018-05-04T02:16:40.276Z,11.90
2018-05-04T02:19:08.320Z,11.90
2018-05-04T02:21:35.815Z,11.90
2018-05-04T02:24:03.384Z,11.80
2018-05-04T02:26:30.900Z,11.80
2018-05-04T02:28:58.370Z,11.80
2018-05-04T02:31:25.834Z,11.80
2018-05-04T02:33:53.340Z,11.80
2018-05-04T02:36:20.801Z,11.70
2018-05-04T02:38:48.274Z,11.70
2018-05-04T02:41:15.720Z,11.70
2018-05-04T02:43:43.159Z,11.70
2018-05-04T02:46:10.641Z,11.60
2018-05-04T02:48:38.119Z,11.60
2018-05-04T02:51:05.622Z,11.60
2018-05-04T02:53:33.068Z,11.50
2018-05-04T02:56:01.002Z,11.50
2018-05-04T02:58:28.559Z,11.50
2018-05-04T03:00:56.028Z,11.50
2018-05-04T03:03:23.483Z,11.50
2018-05-04T03:05:50.951Z,11.50
2018-05-04T03:08:18.532Z,11.50
2018-05-04T03:10:46.068Z,11.50
2018-05-04T03:13:13.520Z,11.40
2018-05-04T03:15:41.113Z,11.40
2018-05-04T03:18:08.561Z,11.40
2018-05-04T03:20:36.035Z,11.40
2018-05-04T03:23:04.199Z,11.30
2018-05-04T03:25:32.169Z,11.30
2018-05-04T03:27:59.632Z,11.30
2018-05-04T03:30:27.089Z,11.30
2018-05-04T03:32:54.553Z,11.20
2018-05-04T03:35:22.030Z,11.20
2018-05-04T03:37:49.493Z,11.20
2018-05-04T03:40:17.014Z,11.20
2018-05-04T03:42:44.565Z,11.30
2018-05-04T03:45:12.001Z,11.30
2018-05-04T03:47:39.552Z,11.30
2018-05-04T03:50:07.016Z,11.40
2018-05-04T03:52:34.580Z,11.40
2018-05-04T03:55:02.040Z,11.40
2018-05-04T03:57:41.524Z,11.40
2018-05-04T04:00:21.032Z,11.50
2018-05-04T04:03:00.844Z,11.50
2018-05-04T04:05:28.400Z,11.50
2018-05-04T04:07:55.860Z,11.50
2018-05-04T04:10:23.328Z,11.50
2018-05-04T04:12:50.800Z,11.50
2018-05-04T04:15:18.307Z,11.50
2018-05-04T04:17:45.764Z,11.50
2018-05-04T04:20:13.281Z,11.50
2018-05-04T04:22:41.275Z,11.50
2018-05-04T04:25:08.730Z,11.50
2018-05-04T04:27:36.222Z,11.40
2018-05-04T04:30:04.065Z,11.40
2018-05-04T04:32:31.909Z,11.40
2018-05-04T04:34:59.372Z,11.40
2018-05-04T04:37:26.816Z,11.30
2018-05-04T04:39:54.407Z,11.30
2018-05-04T04:42:21.864Z,11.30
2018-05-04T04:44:49.329Z,11.30
2018-05-04T04:47:16.813Z,11.30
2018-05-04T04:49:44.272Z,11.30
2018-05-04T04:52:11.837Z,11.30
2018-05-04T04:54:39.355Z,11.30
2018-05-04T04:57:06.858Z,11.30
2018-05-04T04:59:34.326Z,11.30
2018-05-04T05:02:01.787Z,11.40
2018-05-04T05:04:29.256Z,11.40
2018-05-04T05:06:56.733Z,11.40
2018-05-04T05:09:25.064Z,11.30
2018-05-04T05:11:52.551Z,11.30
2018-05-04T05:14:20.009Z,11.40
2018-05-04T05:16:47.519Z,11.40
2018-05-04T05:19:15.035Z,11.40
2018-05-04T05:21:42.596Z,11.50
2018-05-04T05:24:10.062Z,11.50
2018-05-04T05:26:37.615Z,11.60
2018-05-04T05:29:05.155Z,11.60
2018-05-04T05:31:32.616Z,11.70
2018-05-04T05:34:00.124Z,11.70
2018-05-04T05:36:27.670Z,11.80
2018-05-04T05:38:55.123Z,11.80
2018-05-04T05:41:22.637Z,11.90
2018-05-04T05:43:50.480Z,12.10
2018-05-04T05:46:18.596Z,12.10
2018-05-04T05:48:46.125Z,12.10
2018-05-04T05:51:13.672Z,12.20
2018-05-04T05:53:41.135Z,12.40
2018-05-04T05:56:08.578Z,12.40
2018-05-04T05:58:36.067Z,12.50
2018-05-04T06:01:03.527Z,12.60
2018-05-04T06:03:31.089Z,12.70
2018-05-04T06:05:58.588Z,12.80
2018-05-04T06:08:26.432Z,13.00
2018-05-04T06:10:53.991Z,13.00
2018-05-04T06:13:21.444Z,13.10
2018-05-04T06:15:48.904Z,13.10
2018-05-04T06:18:16.468Z,13.20
2018-05-04T06:20:43.930Z,13.30
2018-05-04T06:23:11.384Z,13.30
2018-05-04T06:25:38.852Z,13.40
2018-05-04T06:28:06.299Z,13.40
2018-05-04T06:30:33.824Z,13.50
2018-05-04T06:33:01.678Z,13.60
2018-05-04T06:35:29.127Z,13.60
2018-05-04T06:37:56.897Z,13.70
2018-05-04T06:40:24.376Z,13.80
2018-05-04T06:42:51.910Z,13.80
2018-05-04T06:45:19.390Z,14.00
2018-05-04T06:47:46.945Z,14.10
2018-05-04T06:50:14.502Z,14.20
2018-05-04T06:52:41.953Z,14.30
2018-05-04T06:55:09.457Z,14.40
2018-05-04T06:57:37.357Z,14.60
2018-05-04T07:00:04.821Z,14.60
2018-05-04T07:02:32.273Z,14.70
2018-05-04T07:04:59.719Z,14.80
2018-05-04T07:07:27.632Z,15.00
2018-05-04T07:09:55.122Z,15.00
2018-05-04T07:12:22.687Z,15.10
2018-05-04T07:14:50.144Z,15.20
2018-05-04T07:17:17.710Z,15.30
2018-05-04T07:19:45.559Z,15.40
2018-05-04T07:22:13.022Z,15.40
2018-05-04T07:24:40.473Z,15.50
2018-05-04T07:27:07.923Z,15.60
2018-05-04T07:29:35.377Z,15.60
2018-05-04T07:32:02.901Z,15.70
2018-05-04T07:34:30.353Z,15.80
2018-05-04T07:36:57.818Z,15.80
2018-05-04T07:39:25.265Z,15.90
2018-05-04T07:41:52.726Z,16.00
2018-05-04T07:44:20.188Z,16.00
2018-05-04T07:46:47.656Z,16.10
2018-05-04T07:49:15.117Z,16.10
2018-05-04T07:51:42.586Z,16.20
2018-05-04T07:54:10.049Z,16.20
2018-05-04T07:56:37.509Z,16.30
2018-05-04T07:59:05.088Z,16.40
2018-05-04T08:01:32.557Z,16.50
2018-05-04T08:04:00.022Z,16.60
2018-05-04T08:06:28.188Z,16.60
2018-05-04T08:08:55.652Z,16.70
2018-05-04T08:11:23.213Z,16.80
2018-05-04T08:13:50.905Z,16.80
2018-05-04T08:16:18.752Z,16.90
2018-05-04T08:18:46.215Z,16.90
2018-05-04T08:21:13.726Z,17.00
2018-05-04T08:23:41.235Z,17.00
2018-05-04T08:26:08.702Z,17.20
2018-05-04T08:28:36.161Z,17.30
2018-05-04T08:31:03.624Z,17.40
2018-05-04T08:33:31.133Z,17.50
2018-05-04T08:35:58.595Z,17.50
2018-05-04T08:38:26.063Z,17.60
2018-05-04T08:40:53.570Z,17.80
2018-05-04T08:43:21.353Z,17.80
2018-05-04T08:45:48.904Z,17.80
2018-05-04T08:48:16.414Z,17.90
2018-05-04T08:50:43.825Z,18.10
2018-05-04T08:53:11.276Z,18.20
2018-05-04T08:55:38.854Z,18.30
2018-05-04T08:58:06.930Z,18.30
2018-05-04T09:00:34.389Z,18.40
2018-05-04T09:03:01.844Z,18.50
2018-05-04T09:05:29.475Z,18.60
2018-05-04T09:07:56.768Z,18.70
2018-05-04T09:10:24.275Z,18.80
2018-05-04T09:12:51.875Z,19.00
2018-05-04T09:15:19.365Z,19.00
2018-05-04T09:17:46.831Z,19.20
2018-05-04T09:20:14.282Z,19.40
2018-05-04T09:22:41.742Z,19.50
2018-05-04T09:25:09.217Z,19.70
2018-05-04T09:27:36.678Z,19.90
2018-05-04T09:30:04.242Z,20.00
2018-05-04T09:32:31.714Z,20.00
2018-05-04T09:34:59.235Z,20.00
2018-05-04T09:37:26.724Z,20.00
2018-05-04T09:39:54.194Z,20.00
2018-05-04T09:42:21.754Z,20.00
2018-05-04T09:44:49.209Z,20.00
2018-05-04T09:47:16.775Z,19.90
2018-05-04T09:49:44.551Z,19.80
2018-05-04T09:52:12.005Z,19.80
2018-05-04T09:54:39.464Z,19.80
2018-05-04T09:57:06.912Z,19.70
2018-05-04T09:59:34.396Z,19.70
2018-05-04T10:02:01.849Z,19.70
2018-05-04T10:04:29.337Z,19.70
2018-05-04T10:06:56.806Z,19.70
2018-05-04T10:09:24.270Z,19.70
2018-05-04T10:11:51.817Z,19.80
2018-05-04T10:14:19.287Z,19.80
2018-05-04T10:16:46.746Z,19.90
2018-05-04T10:19:14.206Z,19.90
2018-05-04T10:21:41.673Z,19.90
2018-05-04T10:24:09.159Z,19.90
2018-05-04T10:26:38.997Z,19.90
2018-05-04T10:29:06.468Z,19.90
2018-05-04T10:31:33.929Z,19.90
2018-05-04T10:34:01.383Z,19.90
2018-05-04T10:36:28.939Z,19.90
2018-05-04T10:38:56.449Z,20.00
2018-05-04T10:41:23.912Z,20.00
2018-05-04T10:43:51.368Z,20.00
2018-05-04T10:46:18.823Z,20.10
2018-05-04T10:48:46.336Z,20.10
2018-05-04T10:51:14.193Z,20.30
2018-05-04T10:53:41.658Z,20.30
2018-05-04T10:56:09.115Z,20.30
2018-05-04T10:58:36.583Z,20.40
2018-05-04T11:01:04.644Z,20.40
2018-05-04T11:03:32.095Z,20.40
2018-05-04T11:05:59.559Z,20.40
2018-05-04T11:08:27.004Z,20.40
2018-05-04T11:10:54.463Z,20.50
2018-05-04T11:13:21.972Z,20.50
2018-05-04T11:15:49.829Z,20.60
2018-05-04T11:18:17.381Z,20.60
2018-05-04T11:20:44.845Z,20.60
2018-05-04T11:23:12.305Z,20.70
2018-05-04T11:25:39.810Z,20.70
2018-05-04T11:28:07.660Z,20.70
2018-05-04T11:30:35.120Z,20.70
2018-05-04T11:33:02.576Z,20.70
2018-05-04T11:35:30.037Z,20.70
2018-05-04T11:37:57.559Z,20.80
2018-05-04T11:40:25.258Z,20.80
2018-05-04T11:42:52.718Z,20.90
2018-05-04T11:45:20.190Z,20.90
2018-05-04T11:47:47.756Z,21.00
2018-05-04T11:50:15.272Z,21.00
2018-05-04T11:52:42.768Z,21.10
2018-05-04T11:55:10.327Z,21.10
2018-05-04T11:57:38.155Z,21.20
2018-05-04T12:00:06.018Z,21.30
2018-05-04T12:02:33.905Z,21.30
2018-05-04T12:05:02.075Z,21.30
2018-05-04T12:07:29.592Z,21.30
2018-05-04T12:09:57.156Z,21.40
2018-05-04T12:12:24.817Z,21.40
2018-05-04T12:14:52.322Z,21.40
2018-05-04T12:17:20.804Z,21.40
2018-05-04T12:19:48.740Z,21.40
2018-05-04T12:22:16.204Z,21.40
2018-05-04T12:24:43.674Z,21.50
2018-05-04T12:27:11.188Z,21.60
2018-05-04T12:29:38.629Z,21.60
2018-05-04T12:32:06.588Z,21.70
2018-05-04T12:34:34.025Z,21.70
2018-05-04T12:37:01.610Z,21.70
2018-05-04T12:39:29.092Z,21.70
2018-05-04T12:41:57.664Z,21.70
2018-05-04T12:44:25.147Z,21.70
2018-05-04T12:46:53.039Z,21.80
2018-05-04T12:49:20.548Z,21.90
2018-05-04T12:51:48.092Z,21.90
2018-05-04T12:54:15.539Z,21.90
2018-05-04T12:56:43.022Z,21.90
2018-05-04T12:59:10.476Z,22.00
2018-05-04T13:01:37.956Z,22.00
2018-05-04T13:04:05.457Z,22.00
2018-05-04T13:06:33.308Z,22.10
2018-05-04T13:09:00.795Z,22.10
2018-05-04T13:11:28.237Z,22.10
2018-05-04T13:13:56.091Z,22.20
2018-05-04T13:16:23.919Z,22.20
2018-05-04T13:18:51.514Z,22.20
2018-05-04T13:21:19.076Z,22.20
2018-05-04T13:23:46.624Z,22.20
2018-05-04T13:26:14.110Z,22.30
2018-05-04T13:28:41.645Z,22.30
2018-05-04T13:31:09.100Z,22.30
2018-05-04T13:33:37.413Z,22.30
2018-05-04T13:36:04.879Z,22.40
2018-05-04T13:38:32.453Z,22.40
2018-05-04T13:41:00.005Z,22.40
2018-05-04T13:43:27.475Z,22.40
2018-05-04T13:45:54.929Z,22.50
2018-05-04T13:48:22.384Z,22.50
2018-05-04T13:50:50.174Z,22.50
2018-05-04T13:53:17.611Z,22.50
2018-05-04T13:55:45.084Z,22.60
2018-05-04T13:58:12.644Z,22.50
2018-05-04T14:00:40.168Z,22.50
2018-05-04T14:03:07.616Z,22.60
2018-05-04T14:05:35.508Z,22.60
2018-05-04T14:08:02.967Z,22.60
2018-05-04T14:10:30.579Z,22.60
2018-05-04T14:12:58.036Z,22.60
2018-05-04T14:15:25.500Z,22.60
2018-05-04T14:17:53.063Z,22.60
2018-05-04T14:20:20.657Z,22.60
2018-05-04T14:22:48.501Z,22.70
2018-05-04T14:25:16.673Z,22.70
2018-05-04T14:27:44.123Z,22.70
2018-05-04T14:30:11.627Z,22.70
2018-05-04T14:32:39.540Z,22.80
2018-05-04T14:35:06.995Z,22.80
2018-05-04T14:37:34.496Z,22.90
2018-05-04T14:40:01.953Z,22.90
2018-05-04T14:42:29.457Z,22.90
2018-05-04T14:44:57.392Z,22.90
2018-05-04T14:47:24.961Z,22.90
2018-05-04T14:49:52.408Z,22.90
2018-05-04T14:52:19.903Z,22.90
2018-05-04T14:54:47.456Z,22.80
2018-05-04T14:57:14.932Z,22.90
2018-05-04T14:59:42.389Z,22.90
2018-05-04T15:02:09.864Z,22.90
2018-05-04T15:04:37.709Z,23.00
2018-05-04T15:07:05.268Z,23.00
2018-05-04T15:09:32.830Z,23.00
2018-05-04T15:12:00.415Z,23.00
2018-05-04T15:14:27.868Z,23.10
2018-05-04T15:16:55.623Z,23.10
2018-05-04T15:19:23.192Z,23.10
2018-05-04T15:21:50.650Z,23.10
2018-05-04T15:24:18.098Z,23.10
2018-05-04T15:26:45.552Z,23.00
2018-05-04T15:29:13.013Z,23.10
2018-05-04T15:31:40.516Z,23.00
2018-05-04T15:34:07.968Z,23.00
2018-05-04T15:36:35.431Z,22.90
2018-05-04T15:39:02.969Z,22.90
2018-05-04T15:41:30.348Z,22.90
2018-05-04T15:43:57.863Z,22.90
2018-05-04T15:46:25.308Z,22.90
2018-05-04T15:48:58.721Z,22.80
2018-05-04T15:51:32.288Z,22.70
2018-05-04T15:54:01.285Z,22.70
2018-05-04T15:56:28.834Z,22.70
2018-05-04T15:58:56.275Z,22.70
2018-05-04T16:01:23.772Z,22.70
2018-05-04T16:03:51.229Z,22.60
2018-05-04T16:06:18.748Z,22.60
2018-05-04T16:08:46.206Z,22.70
2018-05-04T16:11:13.708Z,22.70
2018-05-04T16:13:42.138Z,22.70
2018-05-04T16:16:09.557Z,22.70
2018-05-04T16:18:37.070Z,22.70
2018-05-04T16:21:04.614Z,22.70
2018-05-04T16:23:32.563Z,22.70
2018-05-04T16:26:00.019Z,22.70
2018-05-04T16:28:27.483Z,22.70
2018-05-04T16:30:55.009Z,22.70
2018-05-04T16:33:22.468Z,22.70
2018-05-04T16:35:50.083Z,22.70
2018-05-04T16:38:17.560Z,22.70
2018-05-04T16:40:45.008Z,22.60
2018-05-04T16:43:12.502Z,22.60
2018-05-04T16:45:40.344Z,22.50
2018-05-04T16:48:13.474Z,22.50
2018-05-04T16:50:41.038Z,22.40
2018-05-04T16:53:08.563Z,22.30
2018-05-04T16:55:36.073Z,22.30
2018-05-04T16:58:03.542Z,22.30
2018-05-04T17:00:30.993Z,22.20
2018-05-04T17:02:58.445Z,22.10
2018-05-04T17:05:26.284Z,22.10
2018-05-04T17:07:54.142Z,22.10
2018-05-04T17:10:21.589Z,22.10
2018-05-04T17:12:49.119Z,22.10
2018-05-04T17:15:16.498Z,22.10
2018-05-04T17:17:43.959Z,22.00
2018-05-04T17:20:11.480Z,22.00
2018-05-04T17:22:39.333Z,21.90
2018-05-04T17:25:06.794Z,21.90
2018-05-04T17:27:34.851Z,21.90
2018-05-04T17:30:02.306Z,21.90
2018-05-04T17:32:29.809Z,21.80
2018-05-04T17:34:57.261Z,21.80
2018-05-04T17:37:24.713Z,21.80
2018-05-04T17:39:52.170Z,21.80
2018-05-04T17:42:19.620Z,21.80
2018-05-04T17:44:47.126Z,21.70
2018-05-04T17:47:15.006Z,21.60
2018-05-04T17:49:42.461Z,21.60
2018-05-04T17:52:10.312Z,21.50
2018-05-04T17:54:37.874Z,21.50
2018-05-04T17:57:05.346Z,21.40
2018-05-04T17:59:32.799Z,21.40
2018-05-04T18:02:00.265Z,21.30
2018-05-04T18:04:27.921Z,21.20
2018-05-04T18:06:55.380Z,21.20
2018-05-04T18:09:22.884Z,21.10
2018-05-04T18:11:50.733Z,21.00
2018-05-04T18:14:18.183Z,21.00
2018-05-04T18:16:45.741Z,21.00
2018-05-04T18:19:13.613Z,20.90
2018-05-04T18:21:41.146Z,20.90
2018-05-04T18:24:08.595Z,20.80
2018-05-04T18:26:36.105Z,20.70
2018-05-04T18:29:03.676Z,20.60
2018-05-04T18:31:31.142Z,20.60
2018-05-04T18:33:58.600Z,20.50
2018-05-04T18:36:26.057Z,20.50
2018-05-04T18:38:53.626Z,20.50
2018-05-04T18:41:21.101Z,20.40
2018-05-04T18:43:48.632Z,20.30
2018-05-04T18:46:16.148Z,20.30
2018-05-04T18:48:43.614Z,20.20
2018-05-04T18:51:11.469Z,20.10
2018-05-04T18:53:38.913Z,20.10
2018-05-04T18:56:06.460Z,20.10
2018-05-04T18:58:34.041Z,20.00
2018-05-04T19:01:01.502Z,20.00
2018-05-04T19:03:28.959Z,19.90
2018-05-04T19:05:56.521Z,19.80
2018-05-04T19:08:24.109Z,19.80
2018-05-04T19:10:52.038Z,19.70
2018-05-04T19:13:19.534Z,19.70
2018-05-04T19:15:47.179Z,19.60
2018-05-04T19:18:14.565Z,19.60
2018-05-04T19:20:42.053Z,19.60
2018-05-04T19:23:09.546Z,19.60
2018-05-04T19:25:37.003Z,19.60
2018-05-04T19:28:04.474Z,19.50
2018-05-04T19:30:31.940Z,19.50
2018-05-04T19:32:59.759Z,19.40
2018-05-04T19:35:27.613Z,19.30
2018-05-04T19:37:55.186Z,19.30
2018-05-04T19:40:22.745Z,19.30
2018-05-04T19:42:50.215Z,19.30
2018-05-04T19:45:17.670Z,19.20
2018-05-04T19:47:45.191Z,19.20
2018-05-04T19:50:12.653Z,19.20
2018-05-04T19:52:40.109Z,19.10
2018-05-04T19:55:11.446Z,19.10
2018-05-04T20:00:21.734Z,18.90
2018-05-04T20:02:52.172Z,18.80
2018-05-04T20:05:24.345Z,18.70
2018-05-04T20:07:55.265Z,18.70
2018-05-04T20:10:25.199Z,18.70
2018-05-04T20:12:52.568Z,18.70
2018-05-04T20:15:20.072Z,18.70
2018-05-04T20:17:47.933Z,18.60
2018-05-04T20:20:15.513Z,18.60
2018-05-04T20:22:43.369Z,18.50
2018-05-04T20:25:10.834Z,18.50
2018-05-04T20:27:38.387Z,18.50
2018-05-04T20:30:05.846Z,18.50
2018-05-04T20:32:33.404Z,18.40
2018-05-04T20:35:00.916Z,18.40
2018-05-04T20:37:28.378Z,18.30
2018-05-04T20:39:55.836Z,18.30
2018-05-04T20:42:23.711Z,18.10
2018-05-04T20:44:51.644Z,18.10
2018-05-04T20:47:19.205Z,18.10
2018-05-04T20:49:47.015Z,18.10
2018-05-04T20:52:14.863Z,18.00
2018-05-04T20:54:42.340Z,18.00
2018-05-04T20:59:44.372Z,17.90
2018-05-04T21:02:11.941Z,17.90
2018-05-04T21:04:39.404Z,17.90
2018-05-04T21:07:06.946Z,17.90
2018-05-04T21:09:34.433Z,17.90
2018-05-04T21:12:01.901Z,17.90
2018-05-04T21:14:29.396Z,17.80
2018-05-04T21:16:56.873Z,17.80
2018-05-04T21:19:24.764Z,17.70
2018-05-04T21:21:52.232Z,17.70
2018-05-04T21:24:19.724Z,17.70
2018-05-04T21:26:47.252Z,17.70
2018-05-04T21:29:14.730Z,17.70
2018-05-04T21:31:42.892Z,17.60
2018-05-04T21:34:10.376Z,17.60
2018-05-04T21:36:37.880Z,17.50
2018-05-04T21:39:05.395Z,17.50
2018-05-04T21:41:32.854Z,17.50
2018-05-04T21:44:00.557Z,17.50
2018-05-04T21:46:28.049Z,17.40
2018-05-04T21:48:55.928Z,17.50
2018-05-04T21:51:23.431Z,17.50
2018-05-04T21:53:50.950Z,17.40
2018-05-04T21:56:18.959Z,17.40
2018-05-04T21:58:46.487Z,17.40
2018-05-04T22:01:13.960Z,17.40
2018-05-04T22:03:41.445Z,17.30
2018-05-04T22:06:08.928Z,17.30
2018-05-04T22:08:36.426Z,17.20
2018-05-04T22:11:04.310Z,17.20
2018-05-04T22:13:33.147Z,17.10
2018-05-04T22:16:00.670Z,17.10
2018-05-04T22:18:28.690Z,17.10
2018-05-04T22:20:56.177Z,17.10
2018-05-04T22:23:23.662Z,17.10
2018-05-04T22:25:51.774Z,17.20
2018-05-04T22:28:20.351Z,17.20
2018-05-04T22:30:48.006Z,17.10
2018-05-04T22:33:15.518Z,17.10
2018-05-04T22:35:42.998Z,17.10
2018-05-04T22:38:10.570Z,17.00
2018-05-04T22:40:38.104Z,17.00
2018-05-04T22:43:05.666Z,17.00
2018-05-04T22:45:33.166Z,17.00
2018-05-04T22:48:01.054Z,17.00
2018-05-04T22:50:28.963Z,17.00
2018-05-04T22:52:56.454Z,16.90
2018-05-04T22:55:23.942Z,16.90
2018-05-04T22:57:51.489Z,16.90
2018-05-04T23:00:18.987Z,16.80
2018-05-04T23:02:46.527Z,16.80
2018-05-04T23:05:14.028Z,16.80
2018-05-04T23:07:42.025Z,16.80
2018-05-04T23:10:09.510Z,16.80
2018-05-04T23:12:37.021Z,16.80
2018-05-04T23:15:04.593Z,16.80
2018-05-04T23:17:32.083Z,16.80
2018-05-04T23:19:59.572Z,16.70
2018-05-04T23:22:29.068Z,16.70
2018-05-04T23:24:56.536Z,16.70
2018-05-04T23:27:24.100Z,16.70
2018-05-04T23:29:51.581Z,16.70
2018-05-04T23:32:19.461Z,16.60
2018-05-04T23:34:47.354Z,16.60
2018-05-04T23:37:14.823Z,16.60
2018-05-04T23:39:42.353Z,16.60
2018-05-04T23:42:10.232Z,16.50
2018-05-04T23:44:38.212Z,16.50
2018-05-04T23:47:06.082Z,16.50
2018-05-04T23:49:33.949Z,16.40
2018-05-04T23:52:01.832Z,16.50
2018-05-04T23:54:29.328Z,16.50
2018-05-04T23:56:56.847Z,16.50
2018-05-04T23:59:24.337Z,16.40
